Nearby METAR Reports

 

KSJC - San Jose, California, USA
Distance from station: NE 9mi, 14km
Updated: Fri, 18-Sep-2020 5:53pm MDT
Mostly cloudy
Mostly cloudy
 Wind from NNW
Wind: NNW 18 mph , 30 km/h
Temperature: 75°F , 24°C
Dew Point: 52°F , 11°C
Humidity: 44%
Barometer: 29.95 inHg , 1014.2 hPa
Clouds: Mostly cloudy
Visibility: 10 miles , 16 km
Cloud details: Few Clouds 3500 ft
Mostly cloudy 6000 ft
2020/09/18 23:53 KSJC 182353Z 33016KT 10SM FEW035 BKN060 24/11 A2995 RMK AO2 SLP141 FU BKN060 T02390111 10261 20217 55007
KNUQ - Moffett Nas/Mtn, California, USA
Distance from station: N 9mi, 14km
Updated: Fri, 18-Sep-2020 7:55am MDT
NOT Current
Overcast
Overcast
 Wind from calm
Wind: Calm
Temperature: 64°F , 18°C
Dew Point: 59°F , 15°C
Humidity: 83%
Barometer: 30.00 inHg , 1015.9 hPa
Clouds: Overcast
Visibility: 10 miles , 16 km
Cloud details: Overcast 1400 ft
2020/09/18 13:55 KNUQ 181355Z AUTO 00000KT 10SM OVC014 18/15 A3000 RMK AO2
 
KPAO - Palo Alto, California, USA
Distance from station: NNW 14mi, 23km
Updated: Fri, 18-Sep-2020 4:47pm MDT
Clear
Clear
 Wind from NNW
Wind: NNW 18 mph , 30 km/h
Temperature: 73°F , 23°C
Dew Point: 59°F , 15°C
Humidity: 61%
Barometer: 29.96 inHg , 1014.6 hPa
Clouds: Clear
Visibility: 10 miles , 16 km
2020/09/18 22:47 KPAO 182247Z 33016KT 10SM SKC 23/15 A2996
KRHV - San Jose/Reid, California, USA
Distance from station: ENE 12mi, 19km
Updated: Fri, 18-Sep-2020 5:54pm MDT
Few Clouds
Few Clouds
 Wind from NNW
Wind: NNW 18 mph , 30 km/h, Gust: 24 mph , 39 km/h
Temperature: 75°F , 24°C
Dew Point: 54°F , 12°C
Humidity: 47%
Barometer: 29.95 inHg , 1014.2 hPa
Clouds: Few Clouds
Visibility: 10 miles , 16 km
Cloud details: Few Clouds 3500 ft
2020/09/18 23:54 KRHV 182354Z 33016G21KT 10SM FEW035 24/12 A2995
 
KOAK - Oakland, California, USA
Distance from station: NNW 31mi, 50km
Updated: Fri, 18-Sep-2020 5:53pm MDT
Few Clouds
Few Clouds
 Wind from W
Wind: W 20 mph , 31 km/h
Temperature: 75°F , 24°C
Dew Point: 59°F , 15°C
Humidity: 57%
Barometer: 29.97 inHg , 1014.9 hPa
Clouds: Few Clouds
Visibility: 10 miles , 16 km
Cloud details: Few Clouds 1000 ft
Few Clouds 20000 ft
2020/09/18 23:53 KOAK 182353Z 27017KT 10SM FEW010 FEW200 24/15 A2997 RMK AO2 SLP148 T02390150 10239 20211 58009
KSQL - San Carlos Airpo, California, USA
Distance from station: NW 21mi, 34km
Updated: Fri, 18-Sep-2020 5:47pm MDT
Few Clouds
Few Clouds
 Wind from WNW
Wind: WNW 17 mph , 28 km/h
Temperature: 75°F , 24°C
Dew Point: 57°F , 14°C
Humidity: 54%
Barometer: 29.97 inHg , 1014.9 hPa
Clouds: Few Clouds
Visibility: 10 miles , 16 km
Cloud details: Few Clouds 20000 ft
2020/09/18 23:47 KSQL 182347Z 29015KT 10SM FEW200 24/14 A2997
 
KSFO - San Francisco, California, USA
Distance from station: NW 30mi, 49km
Updated: Fri, 18-Sep-2020 5:56pm MDT
Few Clouds
Few Clouds
 Wind from W
Wind: W 17 mph , 28 km/h, Gust: 24 mph , 39 km/h
Temperature: 73°F , 23°C
Dew Point: 57°F , 14°C
Humidity: 57%
Barometer: 29.96 inHg , 1014.6 hPa
Clouds: Few Clouds
Visibility: 10 miles , 16 km
Cloud details: Few Clouds 1300 ft
2020/09/18 23:56 KSFO 182356Z 28015G21KT 10SM FEW013 23/14 A2996 RMK AO2 SLP145 T02280144 10239 20194 58009
KE16 - San Martin, California, USA
Distance from station: ESE 27mi, 43km
Updated: Fri, 18-Sep-2020 5:50pm MDT
Clear
Clear
 Wind from WNW
Wind: WNW 15 mph , 24 km/h, Gust: 21 mph , 33 km/h
Temperature: 79°F , 26°C
Dew Point: 55°F , 13°C
Humidity: 45%
Barometer: 29.94 inHg , 1013.9 hPa
Clouds: Clear
Visibility: 10 miles , 16 km
2020/09/18 23:50 KE16 182350Z AUTO 30013G18KT 10SM CLR 26/13 A2994 RMK AO2
 
KWVI - Watsonville, California, USA
Distance from station: SSE 27mi, 44km
Updated: Fri, 18-Sep-2020 5:53pm MDT
Clear
Clear
 Wind from SW
Wind: SW 7 mph , 11 km/h
Temperature: 77°F , 25°C
Dew Point: 57°F , 14°C
Humidity: 51%
Barometer: 29.94 inHg , 1013.9 hPa
Clouds: Clear
Visibility: 10 miles , 16 km
2020/09/18 23:53 KWVI 182353Z AUTO 23006KT 10SM CLR 25/14 A2994 RMK AO2 SLP136 T02500144 10267 20233 56011
KHAF - Half Moon Bay, California, USA
Distance from station: WNW 31mi, 50km
Updated: Fri, 18-Sep-2020 5:55pm MDT
Few Clouds
Few Clouds
 Wind from W
Wind: W 7 mph , 11 km/h
Temperature: 64°F , 18°C
Dew Point: 59°F , 15°C
Humidity: 83%
Barometer: 30.00 inHg , 1015.9 hPa
Clouds: Few Clouds
Visibility: 8 miles , 13 km
Cloud details: Few Clouds 600 ft
2020/09/18 23:55 KHAF 182355Z AUTO 28006KT 8SM FEW006 18/15 A3000 RMK AO2
 
KHWD - Hayward, California, USA
Distance from station: N 28mi, 44km
Updated: Fri, 18-Sep-2020 5:54pm MDT
Clear
Clear
 Wind from W
Wind: W 10 mph , 17 km/h
Temperature: 73°F , 23°C
Dew Point: 57°F , 14°C
Humidity: 57%
Barometer: 29.97 inHg , 1014.9 hPa
Clouds: Clear
Visibility: 10 miles , 16 km
2020/09/18 23:54 KHWD 182354Z 27009KT 10SM CLR 23/14 A2997 RMK AO2 SLP156 T02330144 10244 20217 56007
KLVK - Livermore, California, USA
Distance from station: NNE 31mi, 51km
Updated: Fri, 18-Sep-2020 5:53pm MDT
Clear
Clear
 Wind from W
Wind: W 16 mph , 26 km/h
Temperature: 75°F , 24°C
Dew Point: 54°F , 12°C
Humidity: 47%
Barometer: 29.95 inHg , 1014.2 hPa
Clouds: Clear
Visibility: 10 miles , 16 km
2020/09/18 23:53 KLVK 182353Z 28014KT 10SM CLR 24/12 A2995 RMK AO2 SLP136 T02390117 10272 20222 55004